Latest Weather Observations for Latrobe Valley

IDV60801

Issued at 3:32 pm EST Thursday 1 October 2020 (issued every 10 minutes, with the page automatically refreshed every 10 minutes)

About weather observations | Map of weather stations | Latest weather observations for VIC | Other Formats
Station Details ID: 085280 Name: LATROBE VALLEY AIRPORT Lat: -38.21 Lon: 146.47 Height: 55.7 m
Data from the previous 72 hours. | See also: Recent months at Latrobe Valley
Date/Time
EST
Temp
°C
App
Temp
°C
Dew
Point
°C
Rel
Hum
%
Delta-T
°C
Wind Press
QNH
hPa
Press
MSL
hPa
Rain since
9am
mm
Dir  Spd
km/h
Gust
km/h
Spd
kts
Gust
kts
01/03:30pm 16.6 11.9 5.9 49 5.2 W 20 33 11 18 1015.6 1015.6 0.0
01/03:00pm 16.6 10.4 6.1 50 5.1 WSW 28 39 15 21 1015.6 1015.6 0.0
01/02:30pm 15.8 9.3 4.5 47 5.3 WSW 28 39 15 21 1015.6 1015.6 0.0
01/02:00pm 16.1 10.0 4.8 47 5.3 W 26 39 14 21 1015.8 1015.8 0.0
01/01:30pm 15.2 9.1 4.9 50 4.8 WSW 26 35 14 19 1015.9 1015.9 0.0
01/01:00pm 15.5 9.1 5.1 50 4.9 W 28 37 15 20 1015.8 1015.8 0.0
01/12:30pm 14.8 8.1 5.6 54 4.4 W 30 39 16 21 1015.7 1015.7 0.0
01/12:00pm 14.3 6.9 4.9 53 4.4 W 33 43 18 23 1015.6 1015.6 0.0
01/11:30am 14.8 8.0 5.1 52 4.6 W 30 41 16 22 1015.5 1015.5 0.0
01/11:00am 13.1 5.9 5.0 58 3.8 W 32 44 17 24 1015.9 1015.9 0.0
01/10:30am 14.1 6.9 6.0 58 3.9 W 33 46 18 25 1016.1 1016.1 0.0
01/10:00am 13.1 5.9 6.0 62 3.4 W 33 46 18 25 1016.0 1016.0 0.0
01/09:49am 13.8 7.8 6.9 63 3.4 W 28 46 15 25 1015.9 1015.9 0.0
01/09:30am 13.1 5.9 6.0 62 3.4 W 33 44 18 24 1015.7 1015.7 0.0
01/09:00am 12.6 6.2 7.1 69 2.7 W 30 43 16 23 1015.4 1015.4 8.8
01/08:30am 12.0 5.2 7.1 72 2.4 W 32 39 17 21 1015.0 1015.0 8.8
01/08:00am 11.4 5.0 7.1 75 2.1 W 30 44 16 24 1014.7 1014.7 8.8
01/07:30am 10.5 5.6 7.0 79 1.7 WNW 22 32 12 17 1014.4 1014.4 8.8
01/07:00am 9.6 5.2 6.5 81 1.4 W 19 26 10 14 1014.0 1014.0 8.8
01/06:30am 8.8 5.2 6.6 86 1.0 W 15 20 8 11 1013.7 1013.7 8.8
01/06:00am 8.6 4.6 6.6 87 0.9 WNW 17 22 9 12 1013.3 1013.3 8.8
01/05:30am 8.8 4.4 6.6 86 1.0 WNW 19 26 10 14 1012.6 1012.7 8.8
01/05:00am 9.5 4.2 6.8 83 1.3 WNW 24 32 13 17 1012.2 1012.3 8.8
01/04:30am 9.4 4.1 6.8 84 1.2 W 24 33 13 18 1011.8 1011.9 8.8
01/04:00am 9.8 4.3 7.4 85 1.1 W 26 33 14 18 1011.3 1011.4 8.8
01/03:30am 9.9 5.2 7.7 86 1.1 W 22 30 12 16 1010.8 1010.9 8.8
01/03:00am 10.6 6.4 8.4 86 1.1 WSW 20 28 11 15 1010.6 1010.7 8.8
01/02:30am 10.5 5.5 8.1 85 1.2 WNW 24 35 13 19 1010.5 1010.6 8.8
01/02:17am 10.6 6.1 8.4 86 1.1 W 22 28 12 15 1010.4 1010.5 8.8
01/02:04am 10.8 6.8 8.9 88 0.9 WSW 20 26 11 14 1010.5 1010.6 8.8
01/02:00am 10.8 6.4 8.9 88 0.9 W 22 35 12 19 1010.4 1010.5 8.8
01/01:30am 10.9 5.7 8.8 87 1.0 W 26 33 14 18 1010.2 1010.3 8.8
01/01:00am 10.8 6.4 9.1 89 0.8 W 22 32 12 17 1009.9 1010.0 8.8
01/12:30am 10.4 6.9 8.7 89 0.8 W 17 20 9 11 1009.6 1009.7 8.8
01/12:11am 10.6 5.8 8.9 89 0.8 WSW 24 30 13 16 1009.7 1009.8 8.8
01/12:00am 10.6 4.6 8.7 88 0.9 WSW 30 37 16 20 1009.5 1009.6 8.8
 
Date/Time
EST
Temp
°C
App
Temp
°C
Dew
Point
°C
Rel
Hum
%
Delta-T
°C
Wind Press
QNH
hPa
Press
MSL
hPa
Rain since
9am
mm
Dir  Spd
km/h
Gust
km/h
Spd
kts
Gust
kts
30/11:55pm 11.1 5.0 9.7 91 0.7 WSW 32 46 17 25 1009.5 1009.6 8.8
30/11:53pm 11.2 5.1 9.8 91 0.7 W 32 46 17 25 1009.5 1009.6 8.6
30/11:45pm 11.2 7.7 10.1 93 0.6 W 19 44 10 24 1009.0 1009.1 8.6
30/11:42pm 11.4 9.1 10.6 95 0.4 W 13 20 7 11 1009.0 1009.1 8.6
30/11:30pm 11.4 9.5 10.6 95 0.4 W 11 15 6 8 1008.8 1008.9 8.4
30/11:16pm 11.3 8.6 10.5 95 0.4 W 15 20 8 11 1008.8 1008.9 8.4
30/11:00pm 11.2 8.9 10.6 96 0.3 W 13 20 7 11 1008.8 1008.9 8.4
30/10:58pm 11.2 8.9 10.6 96 0.3 WNW 13 20 7 11 1008.9 1009.0 8.4
30/10:41pm 11.2 8.6 10.6 96 0.3 WNW 15 19 8 10 1009.2 1009.3 8.4
30/10:30pm 11.2 8.5 10.4 95 0.4 WNW 15 20 8 11 1009.3 1009.4 8.2
30/10:17pm 11.2 8.1 10.4 95 0.4 WNW 17 22 9 12 1009.4 1009.5 7.0
30/10:00pm 11.2 8.9 10.3 94 0.5 WNW 13 17 7 9 1009.3 1009.4 5.6
30/09:30pm 11.3 8.1 10.0 92 0.7 WSW 17 22 9 12 1009.4 1009.5 4.2
30/09:28pm 11.3 7.7 10.0 92 0.7 WSW 19 24 10 13 1009.4 1009.5 4.0
30/09:00pm 12.2 7.9 10.6 90 0.8 WSW 24 32 13 17 1009.3 1009.4 1.4
30/08:58pm 12.3 8.0 10.7 90 0.8 WSW 24 35 13 19 1009.1 1009.2 1.0
30/08:52pm 12.6 6.5 10.5 87 1.1 SW 33 52 18 28 1008.6 1008.7 0.4
30/08:44pm 13.7 9.3 10.3 80 1.8 WSW 24 46 13 25 1008.1 1008.2 0.2
30/08:30pm 13.5 11.7 11.0 85 1.3 W 11 13 6 7 1007.5 1007.6 0.0
30/08:00pm 13.1 13.3 10.6 85 1.3 CALM 0 0 0 0 1007.2 1007.2 0.0
30/07:30pm 13.6 13.8 10.6 82 1.6 CALM 0 0 0 0 1007.0 1007.0 0.0
30/07:00pm 14.4 13.9 10.6 78 2.0 SE 4 7 2 4 1006.7 1006.7 0.0
30/06:30pm 14.8 14.9 10.2 74 2.4 CALM 0 0 0 0 1006.7 1006.7 0.0
30/06:00pm 15.3 14.3 10.3 72 2.6 NNW 6 9 3 5 1006.5 1006.5 0.0
30/05:30pm 15.5 14.3 10.3 71 2.7 NW 7 11 4 6 1006.7 1006.7 0.0
30/05:00pm 16.0 14.9 10.5 70 2.9 WNW 7 9 4 5 1006.7 1006.7 0.0
30/04:30pm 16.6 15.4 10.2 66 3.4 WNW 7 11 4 6 1006.6 1006.6 0.0
30/04:00pm 17.4 17.3 9.6 60 4.1 CALM 0 0 0 0 1006.8 1006.8 0.0
30/03:30pm 17.4 17.6 10.5 64 3.7 CALM 0 2 0 1 1007.0 1007.0 0.0
30/03:00pm 17.4 15.9 9.1 58 4.3 SW 7 11 4 6 1007.3 1007.4 0.0
30/02:30pm 17.6 17.7 10.2 62 3.9 CALM 0 9 0 5 1007.5 1007.6 0.0
30/02:00pm 17.5 15.8 9.9 61 4.0 WNW 9 15 5 8 1007.8 1007.9 0.0
30/01:30pm 17.4 16.4 10.3 63 3.8 N 6 9 3 5 1008.3 1008.4 0.0
30/01:00pm 18.0 16.9 9.9 59 4.3 NNW 6 9 3 5 1008.8 1008.9 0.0
30/12:30pm 17.8 15.4 9.9 60 4.2 NNE 13 20 7 11 1009.2 1009.3 0.0
30/12:00pm 17.9 15.2 10.3 61 4.1 N 15 20 8 11 1009.6 1009.7 0.0
30/11:30am 18.1 17.3 11.0 63 3.8 NNE 6 9 3 5 1010.1 1010.2 0.0
30/11:00am 16.6 15.8 11.1 70 3.0 ENE 6 9 3 5 1010.8 1010.9 0.0
30/10:30am 15.1 14.5 11.7 80 1.8 NE 6 11 3 6 1011.6 1011.7 0.0
30/10:00am 13.4 13.1 11.5 88 1.0 ENE 4 9 2 5 1012.3 1012.4 0.0
30/09:30am 11.9 11.4 10.8 93 0.6 WNW 4 7 2 4 1012.9 1013.0 0.0
30/09:00am 11.1 10.1 10.3 95 0.4 NW 6 11 3 6 1013.0 1013.1 0.4
30/08:30am 10.5 9.7 9.7 95 0.4 SW 4 7 2 4 1013.4 1013.4 0.4
30/08:00am 9.8 8.4 9.0 95 0.4 SSE 6 9 3 5 1013.7 1013.7 0.4
30/07:30am 9.5 7.6 8.9 96 0.3 SSW 9 13 5 7 1013.9 1013.9 0.4
30/07:00am 9.2 7.7 8.6 96 0.3 NNE 6 9 3 5 1013.5 1013.5 0.4
30/06:30am 8.9 6.8 8.1 95 0.4 NW 9 15 5 8 1013.1 1013.2 0.2
30/06:00am 9.4 9.1 8.6 95 0.4 CALM 0 7 0 4 1013.1 1013.2 0.2
30/05:30am 8.8 7.2 8.0 95 0.4 SSE 6 9 3 5 1013.4 1013.4 0.0
30/05:00am 8.4 6.7 7.6 95 0.4 E 6 9 3 5 1013.3 1013.3 0.0
30/04:30am 8.3 6.4 7.4 94 0.4 WSW 7 13 4 7 1013.7 1013.7 0.0
30/04:00am 8.4 7.0 7.3 93 0.5 SW 4 9 2 5 1013.7 1013.7 0.0
30/03:30am 8.3 6.6 7.4 94 0.4 S 6 9 3 5 1013.8 1013.8 0.0
30/03:00am 7.9 7.2 7.0 94 0.4 CALM 0 0 0 0 1014.3 1014.3 0.0
30/02:30am 7.3 5.8 6.6 95 0.3 W 4 7 2 4 1014.5 1014.5 0.0
30/02:00am 7.6 5.7 6.9 95 0.3 NNE 6 7 3 4 1014.6 1014.6 0.0
30/01:30am 7.2 6.3 6.1 93 0.5 CALM 0 0 0 0 1015.3 1015.3 0.0
30/01:00am 7.8 6.7 6.7 93 0.5 SE 2 7 1 4 1015.8 1015.8 0.0
30/12:30am 7.8 7.0 6.6 92 0.6 CALM 0 0 0 0 1016.4 1016.4 0.0
30/12:00am 8.7 8.1 7.5 92 0.6 CALM 0 4 0 2 1016.7 1016.7 0.0
 
Date/Time
EST
Temp
°C
App
Temp
°C
Dew
Point
°C
Rel
Hum
%
Delta-T
°C
Wind Press
QNH
hPa
Press
MSL
hPa
Rain since
9am
mm
Dir  Spd
km/h
Gust
km/h
Spd
kts
Gust
kts
29/11:30pm 8.0 6.8 6.5 90 0.7 WSW 2 7 1 4 1017.0 1017.0 0.0
29/11:00pm 8.4 7.8 7.2 92 0.6 CALM 0 0 0 0 1017.1 1017.1 0.0
29/10:30pm 8.2 7.4 6.7 90 0.7 CALM 0 2 0 1 1017.4 1017.4 0.0
29/10:00pm 9.5 7.7 7.3 86 1.0 ENE 6 7 3 4 1017.9 1017.9 0.0
29/09:30pm 9.9 8.2 7.5 85 1.1 ENE 6 9 3 5 1018.1 1018.1 0.0
29/09:00pm 10.6 9.0 7.8 83 1.4 ENE 6 9 3 5 1018.7 1018.7 0.0
29/08:30pm 10.9 8.7 8.0 82 1.4 ENE 9 13 5 7 1018.7 1018.7 0.0
29/08:00pm 11.3 9.2 8.2 81 1.5 E 9 13 5 7 1018.9 1018.9 0.0
29/07:30pm 11.5 9.0 8.2 80 1.6 ENE 11 15 6 8 1018.9 1018.9 0.0
29/07:00pm 11.9 9.1 8.4 79 1.7 ENE 13 19 7 10 1018.7 1018.7 0.0
29/06:30pm 12.3 9.1 8.4 77 1.9 ENE 15 22 8 12 1018.8 1018.8 0.0
29/06:00pm 12.8 9.7 8.7 76 2.0 NE 15 20 8 11 1018.9 1018.9 0.0
29/05:30pm 13.8 10.6 8.6 71 2.6 NE 15 20 8 11 1018.6 1018.6 0.0
29/05:00pm 14.7 10.8 8.6 67 3.1 NE 19 30 10 16 1018.7 1018.7 0.0
29/04:30pm 15.8 11.7 8.5 62 3.7 ENE 20 30 11 16 1018.5 1018.5 0.0
29/04:00pm 16.5 12.0 8.7 60 4.0 NE 22 30 12 16 1018.6 1018.6 0.0
29/03:30pm 17.0 13.5 8.9 59 4.2 NE 17 22 9 12 1018.7 1018.7 0.0
29/03:00pm 17.7 14.4 9.6 59 4.3 NE 17 26 9 14 1019.2 1019.2 0.0
29/02:30pm 17.8 14.6 9.9 60 4.2 NE 17 24 9 13 1019.6 1019.6 0.0
29/02:00pm 17.8 14.8 9.4 58 4.4 NE 15 20 8 11 1020.2 1020.2 0.0
29/01:30pm 17.1 13.9 8.5 57 4.4 NE 15 22 8 12 1020.9 1020.9 0.0
29/01:00pm 16.8 13.8 9.2 61 3.9 NE 15 22 8 12 1021.5 1021.5 0.0
29/12:30pm 16.4 13.9 9.8 65 3.5 NE 13 22 7 12 1022.2 1022.3 0.0
29/12:00pm 15.8 12.7 9.0 64 3.5 NE 15 22 8 12 1022.7 1022.8 0.0
29/11:30am 15.1 12.0 9.0 67 3.1 NE 15 20 8 11 1023.3 1023.4 0.0
29/11:00am 14.8 12.2 9.2 69 2.9 ENE 13 20 7 11 1023.5 1023.6 0.0
29/10:30am 13.9 10.4 8.7 71 2.6 NE 17 24 9 13 1023.7 1023.8 0.0
29/10:00am 13.0 9.1 7.2 68 2.8 ENE 17 22 9 12 1024.5 1024.6 0.0
29/09:30am 12.8 9.0 7.5 70 2.6 ENE 17 24 9 13 1025.0 1025.1 0.0
29/09:00am 11.7 7.2 6.2 69 2.6 ENE 19 24 10 13 1025.7 1025.8 0.0
29/08:30am 11.4 8.2 6.7 73 2.2 ENE 13 20 7 11 1025.8 1025.9 0.0
29/08:00am 10.5 7.6 6.3 75 2.0 ENE 11 13 6 7 1026.0 1026.1 0.0
29/07:30am 9.6 7.1 6.5 81 1.4 ENE 9 13 5 7 1026.0 1026.1 0.0
29/07:00am 8.1 5.9 6.4 89 0.8 E 7 11 4 6 1025.6 1025.7 0.0
29/06:30am 4.8 2.3 3.9 94 0.4 ENE 6 9 3 5 1025.4 1025.5 0.0
29/06:00am 4.8 2.3 3.8 93 0.4 NE 6 9 3 5 1025.0 1025.1 0.0
29/05:30am 5.3 2.7 4.3 93 0.4 NE 7 9 4 5 1024.7 1024.8 0.0
29/05:00am 5.6 3.0 4.1 90 0.6 NE 7 9 4 5 1024.6 1024.7 0.0
29/04:30am 8.1 5.4 5.6 84 1.1 ENE 9 15 5 8 1024.5 1024.6 0.0
29/04:00am 7.9 5.5 5.4 84 1.1 E 7 11 4 6 1024.4 1024.5 0.0
29/03:30am 7.7 5.3 5.3 85 1.1 E 7 11 4 6 1024.7 1024.8 0.0
29/03:00am 7.4 5.1 5.5 88 0.8 E 7 11 4 6 1024.9 1025.0 0.0
29/02:30am 6.9 4.7 5.5 91 0.6 NE 6 7 3 4 1025.5 1025.6 0.0
29/02:00am 6.4 5.3 5.2 92 0.5 CALM 0 0 0 0 1025.9 1026.0 0.0
29/01:30am 6.3 4.1 5.1 92 0.5 NE 6 9 3 5 1026.0 1026.1 0.0
29/01:00am 5.9 3.3 4.4 90 0.6 ENE 7 9 4 5 1026.2 1026.3 0.0
29/12:30am 6.2 3.7 4.7 90 0.7 ENE 7 9 4 5 1026.7 1026.8 0.0
29/12:00am 6.4 3.5 4.7 89 0.7 E 9 11 5 6 1026.7 1026.8 0.0
 
Date/Time
EST
Temp
°C
App
Temp
°C
Dew
Point
°C
Rel
Hum
%
Delta-T
°C
Wind Press
QNH
hPa
Press
MSL
hPa
Rain since
9am
mm
Dir  Spd
km/h
Gust
km/h
Spd
kts
Gust
kts
28/11:30pm 6.5 3.6 4.8 89 0.7 E 9 11 5 6 1026.7 1026.8 0.0
28/11:00pm 6.8 4.4 5.1 89 0.7 SE 7 11 4 6 1027.0 1027.1 0.0
28/10:30pm 6.6 5.1 5.1 90 0.7 SSE 2 6 1 3 1027.0 1027.1 0.0
28/10:00pm 5.8 4.6 4.6 92 0.5 CALM 0 0 0 0 1027.4 1027.5 0.0
28/09:30pm 5.6 2.9 3.9 89 0.7 NNE 7 9 4 5 1027.5 1027.6 0.0
28/09:00pm 5.9 3.5 4.1 88 0.8 E 6 7 3 4 1027.5 1027.6 0.0
28/08:30pm 5.4 2.3 3.6 88 0.8 W 9 11 5 6 1027.4 1027.5 0.0
28/08:00pm 6.4 3.4 3.9 84 1.1 WSW 9 13 5 7 1027.3 1027.4 0.0
28/07:30pm 7.4 4.8 4.4 81 1.3 WSW 7 9 4 5 1027.2 1027.3 0.0
28/07:00pm 9.0 6.1 4.8 75 1.9 SSW 9 13 5 7 1026.8 1026.9 0.0
28/06:30pm 10.0 6.8 5.2 72 2.2 SSW 11 15 6 8 1026.5 1026.6 0.0
28/06:00pm 11.1 7.6 5.4 68 2.6 SSW 13 19 7 10 1026.4 1026.5 0.0
28/05:30pm 12.2 8.4 5.6 64 3.1 SSW 15 19 8 10 1026.2 1026.3 0.0
28/05:00pm 12.8 8.5 5.2 60 3.5 SSW 17 22 9 12 1025.8 1025.9 0.0
28/04:30pm 13.6 9.4 5.5 58 3.8 SW 17 26 9 14 1025.7 1025.8 0.0
28/04:00pm 13.7 9.5 5.6 58 3.8 SSW 17 22 9 12 1025.7 1025.8 0.0

Other formats

Comma delimited format used in spreadsheet applications
http://www.bom.gov.au/fwo/IDV60801/IDV60801.94891.axf

JavaScript Object Notation format (JSON) in row-major order
http://www.bom.gov.au/fwo/IDV60801/IDV60801.94891.json

Data quality

Most of these data are generated automatically and are frequently updated. Quality checks on data are not normally performed. It is possible for incorrect values to appear. Refer to information at About Latest Weather Observations and please check the disclaimer before using these data.